sensor_id;sensor_type;location;lat;lon;timestamp;pressure;altitude;pressure_sealevel;temperature;humidity
10510;BME280;5303;53.266;10.410;2022-11-11T00:01:54;102371.00;;;12.69;100.00
10510;BME280;5303;53.266;10.410;2022-11-11T00:04:19;102365.50;;;12.79;100.00
10510;BME280;5303;53.266;10.410;2022-11-11T00:06:45;102367.72;;;12.66;100.00
10510;BME280;5303;53.266;10.410;2022-11-11T00:09:11;102364.84;;;12.57;100.00
10510;BME280;5303;53.266;10.410;2022-11-11T00:11:36;102357.75;;;12.65;100.00
10510;BME280;5303;53.266;10.410;2022-11-11T00:14:01;102362.81;;;12.69;100.00
10510;BME280;5303;53.266;10.410;2022-11-11T00:16:27;102365.50;;;12.79;100.00
10510;BME280;5303;53.266;10.410;2022-11-11T00:19:12;102364.47;;;12.80;100.00
10510;BME280;5303;53.266;10.410;2022-11-11T00:21:56;102372.97;;;12.77;100.00
10510;BME280;5303;53.266;10.410;2022-11-11T00:24:39;102372.41;;;12.73;100.00
10510;BME280;5303;53.266;10.410;2022-11-11T00:27:23;102385.97;;;12.75;100.00
10510;BME280;5303;53.266;10.410;2022-11-11T00:29:49;102385.41;;;12.71;100.00
10510;BME280;5303;53.266;10.410;2022-11-11T00:32:14;102393.44;;;12.73;100.00
10510;BME280;5303;53.266;10.410;2022-11-11T00:34:52;102387.25;;;12.71;100.00
10510;BME280;5303;53.266;10.410;2022-11-11T00:37:38;102399.97;;;12.62;100.00
10510;BME280;5303;53.266;10.410;2022-11-11T00:40:03;102410.31;;;12.68;100.00
10510;BME280;5303;53.266;10.410;2022-11-11T00:42:29;102406.09;;;12.74;100.00
10510;BME280;5303;53.266;10.410;2022-11-11T00:44:54;102409.28;;;12.69;100.00
10510;BME280;5303;53.266;10.410;2022-11-11T00:47:20;102394.88;;;12.67;100.00
10510;BME280;5303;53.266;10.410;2022-11-11T00:50:15;102395.16;;;12.74;100.00
10510;BME280;5303;53.266;10.410;2022-11-11T00:53:01;102386.38;;;12.70;100.00
10510;BME280;5303;53.266;10.410;2022-11-11T00:55:26;102394.03;;;12.67;100.00
10510;BME280;5303;53.266;10.410;2022-11-11T00:57:51;102388.25;;;12.70;100.00
10510;BME280;5303;53.266;10.410;2022-11-11T01:00:17;102388.25;;;12.70;100.00
10510;BME280;5303;53.266;10.410;2022-11-11T01:02:42;102388.41;;;12.78;100.00
10510;BME280;5303;53.266;10.410;2022-11-11T01:05:08;102380.63;;;12.73;100.00
10510;BME280;5303;53.266;10.410;2022-11-11T01:07:33;102383.22;;;12.75;100.00
10510;BME280;5303;53.266;10.410;2022-11-11T01:09:58;102388.53;;;12.76;100.00
10510;BME280;5303;53.266;10.410;2022-11-11T01:12:24;102385.09;;;12.65;100.00
10510;BME280;5303;53.266;10.410;2022-11-11T01:14:49;102388.84;;;12.64;100.00
10510;BME280;5303;53.266;10.410;2022-11-11T01:17:14;102384.69;;;12.69;100.00
10510;BME280;5303;53.266;10.410;2022-11-11T01:19:40;102386.22;;;12.81;100.00
10510;BME280;5303;53.266;10.410;2022-11-11T01:22:05;102388.72;;;12.65;100.00
10510;BME280;5303;53.266;10.410;2022-11-11T01:24:30;102389.09;;;12.80;100.00
10510;BME280;5303;53.266;10.410;2022-11-11T01:26:55;102396.75;;;12.67;100.00
10510;BME280;5303;53.266;10.410;2022-11-11T01:29:21;102390.72;;;12.63;100.00
10510;BME280;5303;53.266;10.410;2022-11-11T01:31:46;102397.50;;;12.59;100.00
10510;BME280;5303;53.266;10.410;2022-11-11T01:34:12;102394.53;;;12.90;100.00
10510;BME280;5303;53.266;10.410;2022-11-11T01:36:37;102387.13;;;12.72;100.00
10510;BME280;5303;53.266;10.410;2022-11-11T01:39:02;102394.25;;;12.83;100.00
10510;BME280;5303;53.266;10.410;2022-11-11T01:41:31;102398.59;;;12.76;100.00
10510;BME280;5303;53.266;10.410;2022-11-11T01:46:54;102415.28;;;12.82;100.00
10510;BME280;5303;53.266;10.410;2022-11-11T01:52:12;102421.91;;;12.80;100.00
10510;BME280;5303;53.266;10.410;2022-11-11T01:57:37;102412.34;;;12.56;100.00
10510;BME280;5303;53.266;10.410;2022-11-11T02:00:14;102406.00;;;12.56;100.00
10510;BME280;5303;53.266;10.410;2022-11-11T02:02:47;102405.94;;;12.75;100.00
10510;BME280;5303;53.266;10.410;2022-11-11T02:05:14;102384.94;;;12.76;100.00
10510;BME280;5303;53.266;10.410;2022-11-11T02:08:02;102393.91;;;12.68;100.00
10510;BME280;5303;53.266;10.410;2022-11-11T02:10:31;102385.25;;;12.63;100.00
10510;BME280;5303;53.266;10.410;2022-11-11T02:12:57;102389.44;;;12.57;100.00
10510;BME280;5303;53.266;10.410;2022-11-11T02:15:41;102393.34;;;12.55;100.00
10510;BME280;5303;53.266;10.410;2022-11-11T02:18:07;102387.56;;;12.58;100.00
10510;BME280;5303;53.266;10.410;2022-11-11T02:20:38;102390.78;;;12.44;100.00
10510;BME280;5303;53.266;10.410;2022-11-11T02:26:01;102388.78;;;12.46;100.00
10510;BME280;5303;53.266;10.410;2022-11-11T02:28:28;102385.75;;;12.49;100.00
10510;BME280;5303;53.266;10.410;2022-11-11T02:30:56;102378.13;;;12.43;100.00
10510;BME280;5303;53.266;10.410;2022-11-11T02:33:21;102386.91;;;12.46;100.00
10510;BME280;5303;53.266;10.410;2022-11-11T02:35:50;102390.91;;;12.42;100.00
10510;BME280;5303;53.266;10.410;2022-11-11T02:38:22;102379.16;;;12.32;100.00
10510;BME280;5303;53.266;10.410;2022-11-11T02:40:47;102375.84;;;12.28;100.00
10510;BME280;5303;53.266;10.410;2022-11-11T02:43:33;102363.34;;;12.26;100.00
10510;BME280;5303;53.266;10.410;2022-11-11T02:45:59;102376.31;;;12.24;100.00
10510;BME280;5303;53.266;10.410;2022-11-11T02:48:25;102383.38;;;12.17;100.00
10510;BME280;5303;53.266;10.410;2022-11-11T02:50:50;102384.50;;;12.24;100.00
10510;BME280;5303;53.266;10.410;2022-11-11T02:53:16;102381.91;;;12.12;100.00
10510;BME280;5303;53.266;10.410;2022-11-11T02:55:41;102382.63;;;12.15;100.00
10510;BME280;5303;53.266;10.410;2022-11-11T02:58:07;102374.16;;;12.08;100.00
10510;BME280;5303;53.266;10.410;2022-11-11T03:00:32;102369.56;;;12.08;100.00
10510;BME280;5303;53.266;10.410;2022-11-11T03:02:58;102382.91;;;12.11;100.00
10510;BME280;5303;53.266;10.410;2022-11-11T03:05:23;102381.50;;;12.07;100.00
10510;BME280;5303;53.266;10.410;2022-11-11T03:07:48;102379.63;;;12.08;100.00
10510;BME280;5303;53.266;10.410;2022-11-11T03:10:14;102373.41;;;12.16;100.00
10510;BME280;5303;53.266;10.410;2022-11-11T03:12:40;102382.63;;;12.15;100.00
10510;BME280;5303;53.266;10.410;2022-11-11T03:15:05;102375.16;;;12.17;100.00
10510;BME280;5303;53.266;10.410;2022-11-11T03:17:31;102384.06;;;11.99;100.00
10510;BME280;5303;53.266;10.410;2022-11-11T03:20:10;102375.75;;;11.91;100.00
10510;BME280;5303;53.266;10.410;2022-11-11T03:23:14;102392.72;;;11.95;100.00
10510;BME280;5303;53.266;10.410;2022-11-11T03:25:45;102393.00;;;12.01;100.00
10510;BME280;5303;53.266;10.410;2022-11-11T03:28:12;102390.69;;;11.97;100.00
10510;BME280;5303;53.266;10.410;2022-11-11T03:30:40;102400.06;;;11.94;100.00
10510;BME280;5303;53.266;10.410;2022-11-11T03:33:06;102411.94;;;11.93;100.00
10510;BME280;5303;53.266;10.410;2022-11-11T03:35:32;102413.97;;;11.91;100.00
10510;BME280;5303;53.266;10.410;2022-11-11T03:37:57;102432.94;;;11.93;100.00
10510;BME280;5303;53.266;10.410;2022-11-11T03:40:52;102435.56;;;11.94;100.00
10510;BME280;5303;53.266;10.410;2022-11-11T03:43:19;102436.53;;;11.93;100.00
10510;BME280;5303;53.266;10.410;2022-11-11T03:45:45;102442.56;;;11.97;100.00
10510;BME280;5303;53.266;10.410;2022-11-11T03:48:30;102448.03;;;11.87;100.00
10510;BME280;5303;53.266;10.410;2022-11-11T03:50:56;102435.97;;;11.89;100.00
10510;BME280;5303;53.266;10.410;2022-11-11T03:53:21;102435.09;;;11.89;100.00
10510;BME280;5303;53.266;10.410;2022-11-11T03:55:48;102424.47;;;11.96;100.00
10510;BME280;5303;53.266;10.410;2022-11-11T03:58:14;102433.69;;;11.95;100.00
10510;BME280;5303;53.266;10.410;2022-11-11T04:00:40;102416.44;;;11.94;100.00
10510;BME280;5303;53.266;10.410;2022-11-11T04:03:06;102418.72;;;11.89;100.00
10510;BME280;5303;53.266;10.410;2022-11-11T04:05:51;102414.41;;;11.96;100.00
10510;BME280;5303;53.266;10.410;2022-11-11T04:08:35;102420.38;;;11.80;100.00
10510;BME280;5303;53.266;10.410;2022-11-11T04:11:39;102404.34;;;11.97;100.00
10510;BME280;5303;53.266;10.410;2022-11-11T04:14:09;102411.38;;;11.99;100.00
10510;BME280;5303;53.266;10.410;2022-11-11T04:16:53;102411.25;;;12.01;100.00
10510;BME280;5303;53.266;10.410;2022-11-11T04:19:19;102411.81;;;12.04;100.00
10510;BME280;5303;53.266;10.410;2022-11-11T04:22:13;102412.69;;;11.95;100.00
10510;BME280;5303;53.266;10.410;2022-11-11T04:24:39;102418.28;;;12.03;100.00
10510;BME280;5303;53.266;10.410;2022-11-11T04:27:23;102412.69;;;11.95;100.00
10510;BME280;5303;53.266;10.410;2022-11-11T04:29:48;102415.81;;;12.00;100.00
10510;BME280;5303;53.266;10.410;2022-11-11T04:32:18;102421.00;;;12.03;100.00
10510;BME280;5303;53.266;10.410;2022-11-11T04:35:08;102423.44;;;11.97;100.00
10510;BME280;5303;53.266;10.410;2022-11-11T04:37:36;102427.75;;;11.89;100.00
10510;BME280;5303;53.266;10.410;2022-11-11T04:40:02;102430.09;;;11.94;100.00
10510;BME280;5303;53.266;10.410;2022-11-11T04:42:46;102432.66;;;11.96;100.00
10510;BME280;5303;53.266;10.410;2022-11-11T04:45:13;102436.41;;;11.95;100.00
10510;BME280;5303;53.266;10.410;2022-11-11T04:48:09;102437.25;;;11.95;100.00
10510;BME280;5303;53.266;10.410;2022-11-11T04:50:36;102435.38;;;11.96;100.00
10510;BME280;5303;53.266;10.410;2022-11-11T04:53:04;102429.78;;;11.97;100.00
10510;BME280;5303;53.266;10.410;2022-11-11T04:55:29;102430.66;;;11.98;100.00
10510;BME280;5303;53.266;10.410;2022-11-11T04:58:14;102431.34;;;12.00;100.00
10510;BME280;5303;53.266;10.410;2022-11-11T05:00:39;102435.69;;;12.02;100.00
10510;BME280;5303;53.266;10.410;2022-11-11T05:03:05;102439.25;;;12.03;100.00
10510;BME280;5303;53.266;10.410;2022-11-11T05:05:48;102429.78;;;11.97;100.00
10510;BME280;5303;53.266;10.410;2022-11-11T05:08:35;102442.00;;;11.93;100.00
10510;BME280;5303;53.266;10.410;2022-11-11T05:11:21;102437.38;;;11.94;100.00
10510;BME280;5303;53.266;10.410;2022-11-11T05:13:47;102437.66;;;11.91;100.00
10510;BME280;5303;53.266;10.410;2022-11-11T05:16:35;102445.47;;;11.95;100.00
10510;BME280;5303;53.266;10.410;2022-11-11T05:19:19;102438.28;;;11.94;100.00
10510;BME280;5303;53.266;10.410;2022-11-11T05:22:13;102454.78;;;12.02;100.00
10510;BME280;5303;53.266;10.410;2022-11-11T05:24:39;102437.38;;;12.03;100.00
10510;BME280;5303;53.266;10.410;2022-11-11T05:27:23;102434.66;;;11.94;100.00
10510;BME280;5303;53.266;10.410;2022-11-11T05:29:49;102439.72;;;11.98;100.00
10510;BME280;5303;53.266;10.410;2022-11-11T05:32:18;102446.16;;;11.97;100.00
10510;BME280;5303;53.266;10.410;2022-11-11T05:34:44;102441.44;;;11.99;100.00
10510;BME280;5303;53.266;10.410;2022-11-11T05:37:10;102442.44;;;11.98;100.00
10510;BME280;5303;53.266;10.410;2022-11-11T05:39:35;102438.28;;;11.94;100.00
10510;BME280;5303;53.266;10.410;2022-11-11T05:42:01;102430.78;;;12.06;100.00
10510;BME280;5303;53.266;10.410;2022-11-11T05:44:26;102430.94;;;11.95;100.00
10510;BME280;5303;53.266;10.410;2022-11-11T05:46:51;102429.66;;;11.99;100.00
10510;BME280;5303;53.266;10.410;2022-11-11T05:49:16;102419.44;;;11.91;100.00
10510;BME280;5303;53.266;10.410;2022-11-11T05:51:43;102410.66;;;11.87;100.00
10510;BME280;5303;53.266;10.410;2022-11-11T05:54:09;102419.56;;;11.89;100.00
10510;BME280;5303;53.266;10.410;2022-11-11T05:56:34;102412.53;;;11.97;100.00
10510;BME280;5303;53.266;10.410;2022-11-11T05:58:59;102420.31;;;12.01;100.00
10510;BME280;5303;53.266;10.410;2022-11-11T06:01:25;102424.47;;;12.05;100.00
10510;BME280;5303;53.266;10.410;2022-11-11T06:03:50;102424.19;;;11.99;100.00
10510;BME280;5303;53.266;10.410;2022-11-11T06:06:15;102427.91;;;11.88;100.00
10510;BME280;5303;53.266;10.410;2022-11-11T06:08:41;102434.53;;;11.95;100.00
10510;BME280;5303;53.266;10.410;2022-11-11T06:11:07;102430.03;;;11.84;100.00
10510;BME280;5303;53.266;10.410;2022-11-11T06:13:32;102428.22;;;11.85;100.00
10510;BME280;5303;53.266;10.410;2022-11-11T06:15:58;102433.22;;;11.89;100.00
10510;BME280;5303;53.266;10.410;2022-11-11T06:18:24;102446.59;;;11.93;100.00
10510;BME280;5303;53.266;10.410;2022-11-11T06:20:56;102449.31;;;11.93;100.00
10510;BME280;5303;53.266;10.410;2022-11-11T06:23:22;102451.50;;;11.99;100.00
10510;BME280;5303;53.266;10.410;2022-11-11T06:25:48;102453.66;;;11.95;100.00
10510;BME280;5303;53.266;10.410;2022-11-11T06:28:33;102449.03;;;11.96;100.00
10510;BME280;5303;53.266;10.410;2022-11-11T06:30:59;102445.88;;;11.91;100.00
10510;BME280;5303;53.266;10.410;2022-11-11T06:33:24;102454.94;;;11.91;100.00
10510;BME280;5303;53.266;10.410;2022-11-11T06:35:50;102454.22;;;11.89;100.00
10510;BME280;5303;53.266;10.410;2022-11-11T06:38:16;102456.50;;;11.94;100.00
10510;BME280;5303;53.266;10.410;2022-11-11T06:40:42;102461.97;;;11.94;100.00
10510;BME280;5303;53.266;10.410;2022-11-11T06:43:07;102459.38;;;11.92;100.00
10510;BME280;5303;53.266;10.410;2022-11-11T06:45:33;102457.22;;;11.96;100.00
10510;BME280;5303;53.266;10.410;2022-11-11T06:47:59;102465.28;;;11.97;100.00
10510;BME280;5303;53.266;10.410;2022-11-11T06:50:25;102457.41;;;11.94;100.00
10510;BME280;5303;53.266;10.410;2022-11-11T06:52:51;102454.22;;;11.89;100.00
10510;BME280;5303;53.266;10.410;2022-11-11T06:55:16;102462.97;;;11.93;100.00
10510;BME280;5303;53.266;10.410;2022-11-11T06:57:42;102461.69;;;11.97;100.00
10510;BME280;5303;53.266;10.410;2022-11-11T07:00:07;102465.16;;;11.99;100.00
10510;BME280;5303;53.266;10.410;2022-11-11T07:02:33;102471.63;;;12.07;100.00
10510;BME280;5303;53.266;10.410;2022-11-11T07:04:59;102470.03;;;11.85;100.00
10510;BME280;5303;53.266;10.410;2022-11-11T07:07:24;102469.19;;;11.95;100.00
10510;BME280;5303;53.266;10.410;2022-11-11T07:09:53;102465.59;;;11.94;100.00
10510;BME280;5303;53.266;10.410;2022-11-11T07:12:20;102471.06;;;12.04;100.00
10510;BME280;5303;53.266;10.410;2022-11-11T07:14:45;102484.81;;;11.93;100.00
10510;BME280;5303;53.266;10.410;2022-11-11T07:17:11;102479.31;;;11.83;100.00
10510;BME280;5303;53.266;10.410;2022-11-11T07:19:36;102490.88;;;11.96;100.00
10510;BME280;5303;53.266;10.410;2022-11-11T07:22:01;102498.66;;;12.01;100.00
10510;BME280;5303;53.266;10.410;2022-11-11T07:24:26;102494.31;;;11.98;100.00
10510;BME280;5303;53.266;10.410;2022-11-11T07:26:52;102495.91;;;12.01;100.00
10510;BME280;5303;53.266;10.410;2022-11-11T07:29:17;102504.25;;;11.99;100.00
10510;BME280;5303;53.266;10.410;2022-11-11T07:31:42;102509.69;;;11.99;100.00
10510;BME280;5303;53.266;10.410;2022-11-11T07:34:07;102504.69;;;12.04;100.00
10510;BME280;5303;53.266;10.410;2022-11-11T07:36:33;102507.13;;;12.07;100.00
10510;BME280;5303;53.266;10.410;2022-11-11T07:38:58;102517.91;;;12.09;100.00
10510;BME280;5303;53.266;10.410;2022-11-11T07:41:24;102523.81;;;12.14;100.00
10510;BME280;5303;53.266;10.410;2022-11-11T07:43:49;102519.91;;;12.07;100.00
10510;BME280;5303;53.266;10.410;2022-11-11T07:46:15;102524.78;;;12.03;100.00
10510;BME280;5303;53.266;10.410;2022-11-11T07:48:40;102525.34;;;11.97;100.00
10510;BME280;5303;53.266;10.410;2022-11-11T07:51:05;102529.69;;;12.09;100.00
10510;BME280;5303;53.266;10.410;2022-11-11T07:53:30;102531.88;;;12.16;100.00
10510;BME280;5303;53.266;10.410;2022-11-11T07:55:56;102529.13;;;12.16;100.00
10510;BME280;5303;53.266;10.410;2022-11-11T07:58:21;102535.31;;;12.18;100.00
10510;BME280;5303;53.266;10.410;2022-11-11T08:00:46;102538.34;;;12.15;100.00
10510;BME280;5303;53.266;10.410;2022-11-11T08:03:12;102553.72;;;12.16;100.00
10510;BME280;5303;53.266;10.410;2022-11-11T08:05:40;102544.97;;;12.22;100.00
10510;BME280;5303;53.266;10.410;2022-11-11T08:08:06;102550.72;;;12.28;100.00
10510;BME280;5303;53.266;10.410;2022-11-11T08:10:32;102557.31;;;12.16;100.00
10510;BME280;5303;53.266;10.410;2022-11-11T08:12:58;102561.06;;;12.15;100.00
10510;BME280;5303;53.266;10.410;2022-11-11T08:15:42;102564.63;;;12.16;100.00
10510;BME280;5303;53.266;10.410;2022-11-11T08:18:07;102561.91;;;12.16;100.00
10510;BME280;5303;53.266;10.410;2022-11-11T08:20:33;102566.66;;;12.14;100.00
10510;BME280;5303;53.266;10.410;2022-11-11T08:22:58;102576.88;;;12.21;100.00
10510;BME280;5303;53.266;10.410;2022-11-11T08:25:24;102576.59;;;12.24;100.00
10510;BME280;5303;53.266;10.410;2022-11-11T08:27:57;102577.00;;;12.20;100.00
10510;BME280;5303;53.266;10.410;2022-11-11T08:30:22;102577.75;;;12.31;100.00
10510;BME280;5303;53.266;10.410;2022-11-11T08:32:48;102577.47;;;12.25;100.00
10510;BME280;5303;53.266;10.410;2022-11-11T08:35:13;102576.31;;;12.27;100.00
10510;BME280;5303;53.266;10.410;2022-11-11T08:37:38;102583.47;;;12.19;100.00
10510;BME280;5303;53.266;10.410;2022-11-11T08:40:04;102586.50;;;12.25;100.00
10510;BME280;5303;53.266;10.410;2022-11-11T08:42:29;102585.38;;;12.28;100.00
10510;BME280;5303;53.266;10.410;2022-11-11T08:44:55;102589.69;;;12.30;100.00
10510;BME280;5303;53.266;10.410;2022-11-11T08:47:20;102598.31;;;12.35;100.00
10510;BME280;5303;53.266;10.410;2022-11-11T08:49:46;102603.78;;;12.35;100.00
10510;BME280;5303;53.266;10.410;2022-11-11T08:52:13;102603.09;;;12.33;100.00
10510;BME280;5303;53.266;10.410;2022-11-11T08:54:39;102612.25;;;12.32;100.00
10510;BME280;5303;53.266;10.410;2022-11-11T08:57:05;102610.00;;;12.38;100.00
10510;BME280;5303;53.266;10.410;2022-11-11T08:59:30;102614.16;;;12.42;100.00
10510;BME280;5303;53.266;10.410;2022-11-11T09:01:55;102608.84;;;12.50;100.00
10510;BME280;5303;53.266;10.410;2022-11-11T09:04:20;102609.53;;;12.42;100.00
10510;BME280;5303;53.266;10.410;2022-11-11T09:06:46;102615.75;;;12.44;100.00
10510;BME280;5303;53.266;10.410;2022-11-11T09:09:12;102613.88;;;12.45;100.00
10510;BME280;5303;53.266;10.410;2022-11-11T09:11:37;102611.72;;;12.48;100.00
10510;BME280;5303;53.266;10.410;2022-11-11T09:14:03;102616.75;;;12.33;100.00
10510;BME280;5303;53.266;10.410;2022-11-11T09:16:28;102625.94;;;12.32;100.00
10510;BME280;5303;53.266;10.410;2022-11-11T09:18:53;102628.25;;;12.37;100.00
10510;BME280;5303;53.266;10.410;2022-11-11T09:21:18;102632.28;;;12.33;100.00
10510;BME280;5303;53.266;10.410;2022-11-11T09:23:44;102642.34;;;12.42;100.00
10510;BME280;5303;53.266;10.410;2022-11-11T09:26:09;102637.91;;;12.51;100.00
10510;BME280;5303;53.266;10.410;2022-11-11T09:28:34;102643.38;;;12.61;100.00
10510;BME280;5303;53.266;10.410;2022-11-11T09:31:00;102648.56;;;12.54;100.00
10510;BME280;5303;53.266;10.410;2022-11-11T09:33:26;102644.97;;;12.53;100.00
10510;BME280;5303;53.266;10.410;2022-11-11T09:35:51;102645.69;;;12.46;100.00
10510;BME280;5303;53.266;10.410;2022-11-11T09:38:17;102646.38;;;12.48;100.00
10510;BME280;5303;53.266;10.410;2022-11-11T09:41:02;102646.81;;;12.43;100.00
10510;BME280;5303;53.266;10.410;2022-11-11T09:43:50;102647.81;;;12.52;100.00
10510;BME280;5303;53.266;10.410;2022-11-11T09:46:33;102648.53;;;12.44;100.00
10510;BME280;5303;53.266;10.410;2022-11-11T09:51:43;102649.38;;;12.35;100.00
10510;BME280;5303;53.266;10.410;2022-11-11T09:54:16;102650.25;;;12.35;100.00
10510;BME280;5303;53.266;10.410;2022-11-11T09:56:44;102651.13;;;12.36;100.00
10510;BME280;5303;53.266;10.410;2022-11-11T09:59:18;102652.00;;;12.37;100.00
10510;BME280;5303;53.266;10.410;2022-11-11T10:01:52;102649.00;;;12.49;100.00
10510;BME280;5303;53.266;10.410;2022-11-11T10:06:56;102647.22;;;12.39;100.00
10510;BME280;5303;53.266;10.410;2022-11-11T10:09:33;102659.13;;;12.18;100.00
10510;BME280;5303;53.266;10.410;2022-11-11T10:12:07;102655.56;;;12.27;100.00
10510;BME280;5303;53.266;10.410;2022-11-11T10:14:37;102657.16;;;12.30;100.00
10510;BME280;5303;53.266;10.410;2022-11-11T10:20:03;102656.94;;;12.12;100.00
10510;BME280;5303;53.266;10.410;2022-11-11T10:22:34;102655.97;;;12.23;100.00
10510;BME280;5303;53.266;10.410;2022-11-11T10:25:07;102655.31;;;12.40;100.00
10510;BME280;5303;53.266;10.410;2022-11-11T10:27:45;102651.56;;;12.51;100.00
10510;BME280;5303;53.266;10.410;2022-11-11T10:32:41;102646.38;;;12.48;100.00
10510;BME280;5303;53.266;10.410;2022-11-11T10:35:17;102652.84;;;12.37;100.00
10510;BME280;5303;53.266;10.410;2022-11-11T10:37:42;102653.72;;;12.47;100.00
10510;BME280;5303;53.266;10.410;2022-11-11T10:40:17;102656.31;;;12.39;100.00
10510;BME280;5303;53.266;10.410;2022-11-11T10:42:45;102660.78;;;12.40;100.00
10510;BME280;5303;53.266;10.410;2022-11-11T10:45:38;102653.28;;;12.42;100.00
10510;BME280;5303;53.266;10.410;2022-11-11T10:48:07;102648.13;;;12.39;100.00
10510;BME280;5303;53.266;10.410;2022-11-11T10:50:39;102659.78;;;12.51;100.00
10510;BME280;5303;53.266;10.410;2022-11-11T10:53:19;102656.47;;;12.47;100.00
10510;BME280;5303;53.266;10.410;2022-11-11T10:56:02;102658.16;;;12.39;100.00
10510;BME280;5303;53.266;10.410;2022-11-11T10:58:37;102658.19;;;12.48;100.00
10510;BME280;5303;53.266;10.410;2022-11-11T11:01:09;102650.44;;;12.63;100.00
10510;BME280;5303;53.266;10.410;2022-11-11T11:03:42;102655.75;;;12.55;100.00
10510;BME280;5303;53.266;10.410;2022-11-11T11:06:19;102654.03;;;12.54;100.00
10510;BME280;5303;53.266;10.410;2022-11-11T11:08:50;102646.28;;;12.59;100.00
10510;BME280;5303;53.266;10.410;2022-11-11T11:11:19;102648.88;;;12.70;100.00
10510;BME280;5303;53.266;10.410;2022-11-11T11:14:20;102656.78;;;12.64;100.00
10510;BME280;5303;53.266;10.410;2022-11-11T11:16:50;102652.16;;;12.64;100.00
10510;BME280;5303;53.266;10.410;2022-11-11T11:19:24;102658.09;;;12.79;100.00
10510;BME280;5303;53.266;10.410;2022-11-11T11:22:00;102654.63;;;12.87;100.00
10510;BME280;5303;53.266;10.410;2022-11-11T11:24:30;102649.03;;;12.78;100.00
10510;BME280;5303;53.266;10.410;2022-11-11T11:26:58;102656.94;;;12.91;100.00
10510;BME280;5303;53.266;10.410;2022-11-11T11:31:53;102652.63;;;12.89;100.00
10510;BME280;5303;53.266;10.410;2022-11-11T11:34:19;102657.25;;;12.88;100.00
10510;BME280;5303;53.266;10.410;2022-11-11T11:36:58;102654.50;;;12.98;100.00
10510;BME280;5303;53.266;10.410;2022-11-11T11:39:35;102654.22;;;13.11;100.00
10510;BME280;5303;53.266;10.410;2022-11-11T11:42:01;102653.19;;;13.21;100.00
10510;BME280;5303;53.266;10.410;2022-11-11T11:47:17;102646.88;;;13.31;100.00
10510;BME280;5303;53.266;10.410;2022-11-11T11:50:03;102655.81;;;13.33;100.00
10510;BME280;5303;53.266;10.410;2022-11-11T11:52:42;102655.22;;;13.39;100.00
10510;BME280;5303;53.266;10.410;2022-11-11T11:55:17;102658.94;;;13.38;100.00
10510;BME280;5303;53.266;10.410;2022-11-11T11:58:02;102657.25;;;13.27;100.00
10510;BME280;5303;53.266;10.410;2022-11-11T12:00:42;102657.50;;;13.43;100.00
10510;BME280;5303;53.266;10.410;2022-11-11T12:05:55;102644.50;;;13.65;100.00
10510;BME280;5303;53.266;10.410;2022-11-11T12:08:34;102641.91;;;13.63;100.00
10510;BME280;5303;53.266;10.410;2022-11-11T12:11:08;102634.09;;;13.68;100.00
10510;BME280;5303;53.266;10.410;2022-11-11T12:14:05;102633.16;;;13.87;100.00
10510;BME280;5303;53.266;10.410;2022-11-11T12:16:47;102625.13;;;13.76;100.00
10510;BME280;5303;53.266;10.410;2022-11-11T12:19:41;102627.78;;;13.68;100.00
10510;BME280;5303;53.266;10.410;2022-11-11T12:25:45;102616.81;;;13.68;100.00
10510;BME280;5303;53.266;10.410;2022-11-11T12:36:42;102614.69;;;13.89;100.00
10510;BME280;5303;53.266;10.410;2022-11-11T12:39:34;102607.63;;;13.96;100.00
10510;BME280;5303;53.266;10.410;2022-11-11T12:45:13;102605.25;;;14.02;100.00
10510;BME280;5303;53.266;10.410;2022-11-11T12:48:04;102598.69;;;14.12;100.00
10510;BME280;5303;53.266;10.410;2022-11-11T12:53:53;102591.13;;;14.24;100.00
10510;BME280;5303;53.266;10.410;2022-11-11T12:59:39;102593.50;;;14.37;100.00
10510;BME280;5303;53.266;10.410;2022-11-11T13:02:47;102597.34;;;14.44;100.00
10510;BME280;5303;53.266;10.410;2022-11-11T13:05:28;102600.50;;;14.49;100.00
10510;BME280;5303;53.266;10.410;2022-11-11T13:08:21;102596.78;;;14.40;100.00
10510;BME280;5303;53.266;10.410;2022-11-11T13:16:08;102612.50;;;14.48;100.00
10510;BME280;5303;53.266;10.410;2022-11-11T13:21:52;102607.81;;;14.58;100.00
10510;BME280;5303;53.266;10.410;2022-11-11T13:24:22;102615.66;;;14.53;100.00
10510;BME280;5303;53.266;10.410;2022-11-11T13:26:51;102613.31;;;14.58;100.00
10510;BME280;5303;53.266;10.410;2022-11-11T13:30:21;102617.94;;;14.58;100.00
10510;BME280;5303;53.266;10.410;2022-11-11T13:32:43;102621.13;;;14.53;100.00
10510;BME280;5303;53.266;10.410;2022-11-11T13:35:19;102618.31;;;14.63;100.00
10510;BME280;5303;53.266;10.410;2022-11-11T13:37:46;102622.72;;;14.56;100.00
10510;BME280;5303;53.266;10.410;2022-11-11T13:43:02;102617.22;;;14.56;100.00
10510;BME280;5303;53.266;10.410;2022-11-11T13:45:34;102619.09;;;14.55;100.00
10510;BME280;5303;53.266;10.410;2022-11-11T13:48:00;102618.56;;;14.52;100.00
10510;BME280;5303;53.266;10.410;2022-11-11T13:53:00;102617.81;;;14.50;100.00
10510;BME280;5303;53.266;10.410;2022-11-11T13:58:03;102619.56;;;14.51;100.00
10510;BME280;5303;53.266;10.410;2022-11-11T14:00:38;102625.31;;;14.48;100.00
10510;BME280;5303;53.266;10.410;2022-11-11T14:05:41;102621.03;;;14.45;100.00
10510;BME280;5303;53.266;10.410;2022-11-11T14:08:06;102623.06;;;14.43;100.00
10510;BME280;5303;53.266;10.410;2022-11-11T14:15:47;102632.44;;;14.40;100.00